Latest Weather Observations for Cape Borda

IDS60801

Issued at 11:02 am CST Wednesday 28 September 2016 (issued every 30 minutes, with the page automatically refreshed every 10 minutes)

About weather observations | Map of weather stations | Latest weather observations for SA | Other Formats
Station Details ID: 022823 Name: CAPE BORDA Lat: -35.75 Lon: 136.60 Height: 158.0 m
Data from the previous 72 hours. | See also: Recent months at Cape Borda
Date/Time
CST
Temp
°C
App
Temp
°C
Dew
Point
°C
Rel
Hum
%
Delta-T
°C
Wind Press
QNH
hPa
Press
MSL
hPa
Rain since
9am
mm
Dir  Spd
km/h
Gust
km/h
Spd
kts
Gust
kts
28/11:00am 14.1 6.6 9.3 73 2.5 ENE 39 57 21 31 993.7 - 0.0
28/10:30am 14.0 6.5 9.6 75 2.3 ENE 39 59 21 32 995.1 - 0.0
28/10:00am 14.6 6.8 9.6 72 2.6 ENE 41 61 22 33 995.8 - 0.0
28/09:35am 13.4 5.7 8.7 73 2.4 ENE 39 57 21 31 997.1 - 0.0
28/09:30am 14.1 6.5 9.1 72 2.6 ENE 39 54 21 29 997.3 - 0.0
28/09:16am 13.9 6.7 9.0 72 2.5 ENE 37 56 20 30 998.0 - 0.0
28/09:00am 13.9 6.4 9.3 74 2.4 NE 39 56 21 30 998.8 998.8 0.0
28/08:38am 13.9 7.2 9.7 76 2.2 NE 35 54 19 29 999.7 - 0.0
28/08:30am 13.7 6.7 9.9 78 2.0 ENE 37 54 20 29 999.8 - 0.0
28/08:00am 13.3 6.2 9.4 77 2.0 NE 37 54 20 29 1000.6 - 0.0
28/07:52am 13.2 6.8 9.3 77 2.0 NE 33 52 18 28 1000.7 - 0.0
28/07:30am 13.0 6.2 9.1 77 2.0 NE 35 50 19 27 1001.3 - 0.0
28/07:00am 12.4 6.0 9.3 81 1.6 ENE 33 44 18 24 1002.0 - 0.0
28/06:30am 12.2 5.5 8.2 76 2.0 ENE 33 46 18 25 1002.6 - 0.0
28/06:00am 11.8 5.9 7.5 75 2.1 ENE 28 41 15 22 1003.1 1003.1 0.0
28/05:30am 11.4 5.7 8.4 82 1.5 ENE 28 39 15 21 1004.0 - 0.0
28/05:00am 11.3 6.2 9.1 86 1.1 ENE 26 37 14 20 1004.7 - 0.0
28/04:30am 11.4 6.2 8.8 84 1.3 ENE 26 35 14 19 1005.2 - 0.0
28/04:00am 11.2 6.3 8.4 83 1.4 ENE 24 32 13 17 1005.7 - 0.0
28/03:30am 11.4 6.1 8.4 82 1.5 ENE 26 35 14 19 1006.1 - 0.0
28/03:00am 11.5 6.4 7.8 78 1.8 NE 24 33 13 18 1006.9 1007.0 0.0
28/02:30am 11.4 7.2 8.2 81 1.6 NE 20 28 11 15 1007.5 - 0.0
28/02:00am 11.4 7.1 7.9 79 1.7 NE 20 30 11 16 1008.2 - 0.0
28/01:30am 11.5 7.1 7.6 77 1.9 NNE 20 28 11 15 1008.8 - 0.0
28/01:00am 11.4 7.1 7.7 78 1.8 NNE 20 30 11 16 1009.4 - 0.0
28/12:30am 11.5 7.3 8.3 81 1.6 NNE 20 30 11 16 1009.8 - 0.0
28/12:00am 11.9 8.0 9.6 86 1.2 NNE 20 28 11 15 1010.3 1010.3 0.0
 
Date/Time
CST
Temp
°C
App
Temp
°C
Dew
Point
°C
Rel
Hum
%
Delta-T
°C
Wind Press
QNH
hPa
Press
MSL
hPa
Rain since
9am
mm
Dir  Spd
km/h
Gust
km/h
Spd
kts
Gust
kts
27/11:30pm 12.1 9.0 10.2 88 1.0 NNE 17 26 9 14 1010.5 - 0.0
27/11:00pm 12.1 9.2 9.6 85 1.3 N 15 24 8 13 1010.8 - 0.0
27/10:30pm 11.9 8.5 9.3 84 1.3 N 17 20 9 11 1011.2 - 0.0
27/10:00pm 12.0 9.0 9.2 83 1.4 N 15 22 8 12 1011.2 - 0.0
27/09:30pm 12.5 9.8 8.9 79 1.8 N 13 19 7 10 1011.6 - 0.0
27/09:00pm 12.6 9.4 8.6 76 2.0 NNW 15 19 8 10 1011.9 1012.0 0.0
27/08:30pm 12.5 10.3 9.4 81 1.6 NW 11 15 6 8 1012.1 - 0.0
27/08:00pm 12.4 10.0 9.9 85 1.3 NW 13 20 7 11 1012.3 - 0.0
27/07:30pm 12.1 10.0 9.8 86 1.2 NW 11 15 6 8 1012.3 - 0.0
27/07:00pm 11.8 8.5 9.6 86 1.1 WNW 17 26 9 14 1012.3 - 0.0
27/06:30pm 12.3 9.1 8.3 76 2.0 WNW 15 20 8 11 1012.2 - 0.0
27/06:00pm 12.8 8.5 9.3 79 1.8 NW 22 30 12 16 1012.4 1012.5 0.0
27/05:30pm 12.9 8.6 9.4 79 1.8 NW 22 28 12 15 1012.3 - 0.0
27/05:00pm 13.0 8.7 9.3 78 1.9 NW 22 32 12 17 1012.4 - 0.0
27/04:30pm 13.6 8.9 9.1 74 2.3 NW 24 33 13 18 1012.4 - 0.0
27/04:00pm 13.3 8.4 8.5 72 2.4 NW 24 35 13 19 1012.5 - 0.0
27/03:30pm 14.7 9.8 8.6 67 3.1 NW 24 35 13 19 1012.7 - 0.0
27/03:00pm 15.2 10.4 8.8 65 3.3 NW 24 32 13 17 1012.9 1013.0 0.0
27/02:30pm 14.9 10.4 8.6 66 3.2 NW 22 32 12 17 1013.0 - 0.0
27/02:00pm 15.1 9.8 8.6 65 3.3 NW 26 33 14 18 1013.2 - 0.0
27/01:30pm 13.5 7.8 8.3 71 2.6 NW 28 37 15 20 1013.6 - 0.0
27/01:00pm 13.9 8.4 7.7 66 3.1 NW 26 32 14 17 1013.9 - 0.0
27/12:30pm 13.6 8.4 7.1 65 3.2 NW 24 32 13 17 1014.2 - 0.0
27/12:00pm 13.4 8.6 7.5 67 2.9 WNW 22 32 12 17 1014.5 1014.5 0.0
27/11:30am 13.6 8.4 7.1 65 3.2 WNW 24 35 13 19 1014.6 - 0.0
27/11:00am 14.4 8.7 6.9 60 3.7 WNW 26 35 14 19 1014.8 - 0.0
27/10:30am 14.0 8.4 7.3 64 3.3 NW 26 37 14 20 1014.8 - 0.0
27/10:00am 13.5 8.7 7.4 66 3.0 NW 22 32 12 17 1014.9 - 0.0
27/09:30am 12.3 7.2 6.2 66 2.9 WNW 22 32 12 17 1015.0 - 0.0
27/09:00am 12.3 7.2 6.2 66 2.9 NW 22 32 12 17 1014.9 1014.9 0.0
27/08:30am 12.6 8.0 6.3 65 3.0 WNW 20 30 11 16 1014.9 - 0.0
27/08:00am 12.4 7.0 4.6 59 3.6 WNW 22 33 12 18 1014.7 - 0.0
27/07:30am 11.4 5.8 5.4 66 2.8 WNW 24 33 13 18 1014.3 - 0.0
27/07:00am 11.3 6.0 5.0 65 2.9 WNW 22 32 12 17 1014.0 - 0.0
27/06:30am 10.8 5.4 4.4 64 2.9 W 22 32 12 17 1013.8 - 0.0
27/06:00am 10.8 4.9 3.9 62 3.1 W 24 32 13 17 1013.4 1013.5 0.0
27/05:30am 10.7 4.5 4.3 64 2.9 W 26 35 14 19 1013.1 - 0.0
27/05:00am 10.7 4.6 4.8 67 2.7 W 26 37 14 20 1013.0 - 0.0
27/04:30am 10.6 4.9 4.9 68 2.6 W 24 35 13 19 1012.9 - 0.0
27/04:00am 10.5 4.7 4.3 65 2.8 W 24 33 13 18 1012.9 - 0.0
27/03:30am 10.3 5.1 5.3 71 2.3 W 22 33 12 18 1012.8 - 0.0
27/03:00am 10.4 5.1 5.2 70 2.4 W 22 33 12 18 1013.0 1013.1 0.0
27/02:30am 10.7 4.6 5.0 68 2.6 W 26 39 14 21 1013.1 - 0.0
27/02:00am 10.5 5.0 4.0 64 2.9 W 22 35 12 19 1013.4 - 0.0
27/01:30am 10.6 4.2 3.3 60 3.2 W 26 41 14 22 1013.7 - 0.0
27/01:00am 10.4 4.5 3.9 64 2.9 W 24 35 13 19 1013.7 - 0.0
27/12:30am 10.4 4.8 3.4 62 3.1 W 22 32 12 17 1014.0 - 0.0
27/12:00am 10.2 5.2 4.4 67 2.6 W 20 30 11 16 1014.2 1014.2 0.0
 
Date/Time
CST
Temp
°C
App
Temp
°C
Dew
Point
°C
Rel
Hum
%
Delta-T
°C
Wind Press
QNH
hPa
Press
MSL
hPa
Rain since
9am
mm
Dir  Spd
km/h
Gust
km/h
Spd
kts
Gust
kts
26/11:30pm 10.4 5.1 3.1 60 3.2 W 20 35 11 19 1014.5 - 0.0
26/11:00pm 10.3 4.9 2.4 58 3.4 WSW 20 33 11 18 1014.5 - 0.0
26/10:30pm 10.2 4.4 2.5 59 3.3 WSW 22 33 12 18 1014.6 - 0.0
26/10:00pm 10.4 3.8 2.2 57 3.5 WSW 26 37 14 20 1014.6 - 0.0
26/09:30pm 10.3 3.7 1.8 55 3.6 WSW 26 35 14 19 1014.5 - 0.0
26/09:00pm 10.7 5.0 4.8 67 2.7 WSW 24 33 13 18 1014.3 1014.3 0.0
26/08:30pm 10.1 4.8 5.1 71 2.3 SW 22 32 12 17 1014.2 - 0.0
26/08:00pm 10.5 4.1 5.0 69 2.5 WSW 28 39 15 21 1013.9 - 0.0
26/07:30pm 10.7 5.2 5.8 72 2.3 WSW 24 35 13 19 1013.5 - 0.0
26/07:00pm 10.7 4.8 6.0 73 2.2 WSW 26 37 14 20 1013.0 - 0.0
26/06:30pm 10.8 4.1 5.4 69 2.5 SW 30 41 16 22 1012.8 - 0.0
26/06:00pm 10.8 4.5 5.6 70 2.4 WSW 28 37 15 20 1012.7 1012.8 0.0
26/05:30pm 11.5 4.3 5.2 65 2.9 WSW 32 44 17 24 1012.2 - 0.0
26/05:00pm 11.5 4.3 5.0 64 3.0 WSW 32 44 17 24 1011.7 - 0.0
26/04:30pm 12.2 5.0 4.9 61 3.4 WSW 32 46 17 25 1011.5 - 0.0
26/04:00pm 12.6 5.0 3.8 55 4.0 WSW 33 46 18 25 1011.2 - 0.0
26/03:30pm 12.9 5.8 5.7 61 3.4 WSW 32 46 17 25 1011.1 - 0.0
26/03:00pm 12.7 4.5 4.7 58 3.7 WSW 37 59 20 32 1010.8 1010.8 0.0
26/02:32pm 12.7 4.2 5.0 59 3.6 SW 39 57 21 31 1010.5 - 0.0
26/02:30pm 12.7 3.7 4.7 58 3.7 SW 41 57 22 31 1010.4 - 0.0
26/02:00pm 13.0 4.6 3.8 53 4.2 WSW 37 56 20 30 1010.4 - 0.0
26/01:40pm 13.0 4.7 6.1 63 3.3 WSW 39 57 21 31 1010.4 - 0.0
26/01:30pm 12.2 3.4 5.4 63 3.2 WSW 41 57 22 31 1010.5 - 0.0
26/01:04pm 13.2 5.0 4.8 56 3.9 W 37 56 20 30 1010.8 - 0.0
26/01:00pm 12.9 4.3 4.7 57 3.8 W 39 56 21 30 1010.8 - 0.0
26/12:30pm 12.5 3.6 5.0 60 3.5 W 41 59 22 32 1010.9 - 0.0
26/12:01pm 12.4 3.2 3.5 54 4.0 W 41 61 22 33 1010.9 - 0.0
26/12:00pm 12.5 3.4 3.9 56 3.9 W 41 57 22 31 1011.0 1011.1 0.0
26/11:43am 13.0 4.8 4.6 56 3.9 W 37 56 20 30 1010.9 - 0.0
26/11:30am 13.3 5.1 4.7 56 4.0 W 37 54 20 29 1010.9 - 0.0
26/11:00am 12.7 5.3 5.2 60 3.5 W 33 50 18 27 1011.0 - 0.0
26/10:41am 12.2 4.8 3.8 56 3.8 W 32 50 17 27 1011.0 - 0.0
26/10:30am 12.8 4.9 4.3 56 3.9 W 35 46 19 25 1011.1 - 0.0
26/10:08am 12.0 4.5 3.5 56 3.8 W 32 54 17 29 1011.1 - 0.0
26/10:00am 12.2 4.1 3.0 53 4.1 W 35 50 19 27 1011.1 - 0.0
26/09:30am 12.1 4.2 2.5 52 4.2 W 33 48 18 26 1011.1 - 0.0
26/09:00am 11.3 2.3 2.6 55 3.8 W 39 50 21 27 1010.9 1010.9 3.2
26/08:30am 10.7 3.3 4.8 67 2.7 W 33 46 18 25 1010.8 - 3.2
26/08:00am 9.9 3.8 6.7 80 1.5 W 28 39 15 21 1010.9 - 3.2
26/07:30am 9.3 2.5 4.9 74 2.0 W 30 43 16 23 1010.7 - 3.0
26/07:00am 8.9 1.4 6.3 84 1.2 W 35 48 19 26 1010.7 - 3.0
26/06:30am 9.3 0.7 8.3 93 0.5 W 43 57 23 31 1010.5 - 2.8
26/06:26am 9.3 1.6 8.5 95 0.4 W 39 57 21 31 1010.5 - 2.8
26/06:20am 10.3 2.6 8.7 90 0.8 WNW 39 61 21 33 1010.4 - 1.2
26/06:17am 10.3 3.3 8.5 89 0.9 W 35 48 19 26 1010.3 - 1.2
26/06:00am 10.3 1.6 7.8 84 1.2 NW 43 65 23 35 1010.2 1010.2 1.2
26/05:57am 10.9 3.1 8.1 83 1.4 NW 39 65 21 35 1010.1 - 1.0
26/05:53am 11.0 2.3 7.5 79 1.7 NW 43 56 23 30 1010.2 - 0.8
26/05:30am 12.1 5.6 8.1 76 2.0 NNW 32 46 17 25 1009.7 - 0.6
26/05:00am 11.7 5.4 7.2 74 2.2 NNW 30 43 16 23 1009.6 - 0.6
26/04:30am 12.1 5.6 6.5 68 2.7 N 30 43 16 23 1009.8 - 0.6
26/04:00am 11.9 7.1 7.4 74 2.2 N 22 32 12 17 1010.0 - 0.6
26/03:30am 11.9 6.6 8.3 78 1.8 N 26 39 14 21 1010.2 - 0.6
26/03:00am 12.1 6.8 8.3 77 1.9 N 26 35 14 19 1010.0 1010.0 0.6
26/02:30am 11.9 7.2 6.0 67 2.8 N 20 30 11 16 1009.9 - 0.6
26/02:00am 11.3 7.7 6.7 73 2.2 NNE 15 20 8 11 1009.9 - 0.6
26/01:30am 11.4 7.5 7.0 74 2.1 N 17 24 9 13 1010.3 - 0.6
26/01:00am 11.5 7.3 7.4 76 2.0 NNW 19 26 10 14 1011.5 - 0.6
26/12:30am 11.5 7.0 6.9 73 2.2 NW 20 32 11 17 1012.2 - 0.6
26/12:00am 11.6 6.8 7.5 76 2.0 NW 22 33 12 18 1012.7 1012.8 0.6
 
Date/Time
CST
Temp
°C
App
Temp
°C
Dew
Point
°C
Rel
Hum
%
Delta-T
°C
Wind Press
QNH
hPa
Press
MSL
hPa
Rain since
9am
mm
Dir  Spd
km/h
Gust
km/h
Spd
kts
Gust
kts
25/11:30pm 11.8 6.2 7.0 72 2.3 WNW 26 35 14 19 1012.9 - 0.6
25/11:00pm 11.9 6.2 6.9 71 2.4 NW 26 37 14 20 1013.2 - 0.6
25/10:30pm 11.7 6.6 7.8 77 1.9 WNW 24 37 13 20 1013.6 - 0.6
25/10:00pm 11.3 6.7 8.3 82 1.5 NW 22 30 12 16 1013.7 - 0.6
25/09:30pm 10.9 5.8 7.8 81 1.5 NW 24 35 13 19 1013.8 - 0.6
25/09:00pm 10.9 6.4 8.7 86 1.1 NW 22 35 12 19 1013.9 1014.0 0.4
25/08:30pm 10.8 6.8 8.4 85 1.2 WNW 19 24 10 13 1013.8 - 0.0
25/08:00pm 11.8 6.5 7.0 72 2.3 NW 24 37 13 20 1013.6 - 0.0
25/07:30pm 11.1 6.9 7.6 79 1.7 WNW 19 26 10 14 1013.5 - 0.0
25/07:00pm 11.5 7.0 6.9 73 2.2 WNW 20 32 11 17 1013.2 - 0.0
25/06:30pm 11.4 6.3 6.1 70 2.5 WNW 22 32 12 17 1013.1 - 0.0
25/06:00pm 11.3 5.9 6.5 72 2.3 WNW 24 30 13 16 1013.0 1013.1 0.0
25/05:30pm 12.1 8.2 6.9 70 2.5 WNW 17 26 9 14 1012.9 - 0.0
25/05:00pm 12.2 8.7 7.0 70 2.5 WNW 15 20 8 11 1012.9 - 0.0
25/04:30pm 12.3 7.9 6.7 68 2.7 W 19 24 10 13 1012.8 - 0.0
25/04:00pm 13.6 8.2 4.6 54 4.2 WNW 22 32 12 17 1012.7 - 0.0
25/03:30pm 12.4 7.3 5.9 64 3.1 WNW 22 30 12 16 1012.8 - 0.0
25/03:00pm 13.1 7.9 5.7 61 3.5 NW 22 30 12 16 1012.8 1012.9 0.0
25/02:30pm 13.8 8.5 4.8 54 4.2 NW 22 28 12 15 1012.9 - 0.0
25/02:00pm 12.2 8.0 5.9 65 3.0 NW 17 20 9 11 1013.2 - 0.0
25/01:30pm 13.3 9.5 5.7 60 3.6 WNW 15 20 8 11 1013.5 - 0.0
25/01:00pm 13.5 10.0 5.5 58 3.8 WNW 13 19 7 10 1013.8 - 0.0
25/12:30pm 12.2 7.6 6.3 67 2.8 W 20 28 11 15 1014.0 - 0.0
25/12:00pm 13.7 9.0 5.0 55 4.1 W 19 24 10 13 1014.3 1014.3 0.0
25/11:30am 13.4 8.3 4.0 53 4.3 W 20 24 11 13 1014.5 - 0.0

Other Formats:

Comma delimited format used in spreadsheet applications
http://www.bom.gov.au/fwo/IDS60801/IDS60801.95805.axf

JavaScript Object Notation format (JSON) in row-major order
http://www.bom.gov.au/fwo/IDS60801/IDS60801.95805.json